sensor_id;sensor_type;location;lat;lon;timestamp;P1;durP1;ratioP1;P2;durP2;ratioP2
82022;SDS011;71575;49.908;18.356;2024-03-08T00:01:10;35.45;;;18.75;;
82022;SDS011;71575;49.908;18.356;2024-03-08T00:04:19;37.80;;;19.50;;
82022;SDS011;71575;49.908;18.356;2024-03-08T00:07:26;31.02;;;18.42;;
82022;SDS011;71575;49.908;18.356;2024-03-08T00:10:30;35.65;;;20.35;;
82022;SDS011;71575;49.908;18.356;2024-03-08T00:13:32;38.25;;;20.20;;
82022;SDS011;71575;49.908;18.356;2024-03-08T00:16:33;33.70;;;19.38;;
82022;SDS011;71575;49.908;18.356;2024-03-08T00:19:33;39.47;;;19.80;;
82022;SDS011;71575;49.908;18.356;2024-03-08T00:22:34;36.08;;;21.83;;
82022;SDS011;71575;49.908;18.356;2024-03-08T00:25:39;38.15;;;20.88;;
82022;SDS011;71575;49.908;18.356;2024-03-08T00:28:42;35.67;;;20.35;;
82022;SDS011;71575;49.908;18.356;2024-03-08T00:31:43;37.90;;;22.98;;
82022;SDS011;71575;49.908;18.356;2024-03-08T00:34:44;39.05;;;18.38;;
82022;SDS011;71575;49.908;18.356;2024-03-08T00:37:45;39.45;;;20.42;;
82022;SDS011;71575;49.908;18.356;2024-03-08T00:40:46;39.63;;;20.33;;
82022;SDS011;71575;49.908;18.356;2024-03-08T00:43:56;37.30;;;21.20;;
82022;SDS011;71575;49.908;18.356;2024-03-08T00:47:01;39.10;;;20.88;;
82022;SDS011;71575;49.908;18.356;2024-03-08T00:50:02;38.22;;;19.83;;
82022;SDS011;71575;49.908;18.356;2024-03-08T00:53:03;35.88;;;19.13;;
82022;SDS011;71575;49.908;18.356;2024-03-08T00:56:04;34.30;;;17.90;;
82022;SDS011;71575;49.908;18.356;2024-03-08T00:59:06;33.28;;;18.13;;
82022;SDS011;71575;49.908;18.356;2024-03-08T01:02:07;37.88;;;20.70;;
82022;SDS011;71575;49.908;18.356;2024-03-08T01:05:08;31.95;;;15.32;;
82022;SDS011;71575;49.908;18.356;2024-03-08T01:08:08;34.47;;;19.45;;
82022;SDS011;71575;49.908;18.356;2024-03-08T01:11:13;30.45;;;14.40;;
82022;SDS011;71575;49.908;18.356;2024-03-08T01:14:14;34.30;;;17.60;;
82022;SDS011;71575;49.908;18.356;2024-03-08T01:17:15;30.73;;;17.17;;
82022;SDS011;71575;49.908;18.356;2024-03-08T01:20:15;35.08;;;19.13;;
82022;SDS011;71575;49.908;18.356;2024-03-08T01:26:23;31.27;;;16.65;;
82022;SDS011;71575;49.908;18.356;2024-03-08T01:29:24;31.95;;;14.60;;
82022;SDS011;71575;49.908;18.356;2024-03-08T01:32:25;32.53;;;17.83;;
82022;SDS011;71575;49.908;18.356;2024-03-08T01:35:26;31.98;;;17.42;;
82022;SDS011;71575;49.908;18.356;2024-03-08T01:38:27;28.70;;;16.33;;
82022;SDS011;71575;49.908;18.356;2024-03-08T01:41:30;32.63;;;16.98;;
82022;SDS011;71575;49.908;18.356;2024-03-08T01:44:31;30.55;;;15.45;;
82022;SDS011;71575;49.908;18.356;2024-03-08T01:47:35;28.40;;;15.88;;
82022;SDS011;71575;49.908;18.356;2024-03-08T01:50:36;28.52;;;16.23;;
82022;SDS011;71575;49.908;18.356;2024-03-08T01:53:36;32.38;;;16.02;;
82022;SDS011;71575;49.908;18.356;2024-03-08T01:56:38;31.42;;;17.60;;
82022;SDS011;71575;49.908;18.356;2024-03-08T01:59:39;32.38;;;18.63;;
82022;SDS011;71575;49.908;18.356;2024-03-08T02:02:41;26.17;;;13.52;;
82022;SDS011;71575;49.908;18.356;2024-03-08T02:05:42;33.30;;;17.20;;
82022;SDS011;71575;49.908;18.356;2024-03-08T02:08:43;29.45;;;18.02;;
82022;SDS011;71575;49.908;18.356;2024-03-08T02:11:47;36.20;;;21.33;;
82022;SDS011;71575;49.908;18.356;2024-03-08T02:14:47;30.80;;;16.50;;
82022;SDS011;71575;49.908;18.356;2024-03-08T02:17:48;29.52;;;17.02;;
82022;SDS011;71575;49.908;18.356;2024-03-08T02:23:53;35.47;;;17.58;;
82022;SDS011;71575;49.908;18.356;2024-03-08T02:26:53;31.42;;;14.65;;
82022;SDS011;71575;49.908;18.356;2024-03-08T02:29:54;33.38;;;17.05;;
82022;SDS011;71575;49.908;18.356;2024-03-08T02:32:55;26.17;;;15.25;;
82022;SDS011;71575;49.908;18.356;2024-03-08T02:35:56;31.35;;;17.67;;
82022;SDS011;71575;49.908;18.356;2024-03-08T02:38:57;29.83;;;15.05;;
82022;SDS011;71575;49.908;18.356;2024-03-08T02:41:59;27.77;;;13.48;;
82022;SDS011;71575;49.908;18.356;2024-03-08T02:45:00;33.33;;;18.17;;
82022;SDS011;71575;49.908;18.356;2024-03-08T02:48:03;36.17;;;17.88;;
82022;SDS011;71575;49.908;18.356;2024-03-08T02:51:05;31.27;;;15.88;;
82022;SDS011;71575;49.908;18.356;2024-03-08T02:54:06;31.38;;;16.55;;
82022;SDS011;71575;49.908;18.356;2024-03-08T02:57:06;34.00;;;18.90;;
82022;SDS011;71575;49.908;18.356;2024-03-08T03:00:07;30.70;;;16.77;;
82022;SDS011;71575;49.908;18.356;2024-03-08T03:03:08;29.90;;;17.02;;
82022;SDS011;71575;49.908;18.356;2024-03-08T03:06:09;30.00;;;15.80;;
82022;SDS011;71575;49.908;18.356;2024-03-08T03:09:11;33.03;;;17.00;;
82022;SDS011;71575;49.908;18.356;2024-03-08T03:12:12;32.03;;;17.10;;
82022;SDS011;71575;49.908;18.356;2024-03-08T03:15:14;32.15;;;17.17;;
82022;SDS011;71575;49.908;18.356;2024-03-08T03:18:19;28.52;;;16.50;;
82022;SDS011;71575;49.908;18.356;2024-03-08T03:21:20;32.42;;;17.45;;
82022;SDS011;71575;49.908;18.356;2024-03-08T03:24:21;31.80;;;17.50;;
82022;SDS011;71575;49.908;18.356;2024-03-08T03:27:21;31.15;;;17.40;;
82022;SDS011;71575;49.908;18.356;2024-03-08T03:30:23;27.90;;;15.38;;
82022;SDS011;71575;49.908;18.356;2024-03-08T03:33:24;29.77;;;17.88;;
82022;SDS011;71575;49.908;18.356;2024-03-08T03:36:25;27.55;;;15.25;;
82022;SDS011;71575;49.908;18.356;2024-03-08T03:39:25;32.78;;;17.85;;
82022;SDS011;71575;49.908;18.356;2024-03-08T03:42:26;32.83;;;16.67;;
82022;SDS011;71575;49.908;18.356;2024-03-08T03:45:27;29.75;;;16.45;;
82022;SDS011;71575;49.908;18.356;2024-03-08T03:48:28;29.27;;;15.48;;
82022;SDS011;71575;49.908;18.356;2024-03-08T03:51:28;30.10;;;17.73;;
82022;SDS011;71575;49.908;18.356;2024-03-08T03:54:29;33.80;;;16.90;;
82022;SDS011;71575;49.908;18.356;2024-03-08T03:57:30;29.80;;;15.63;;
82022;SDS011;71575;49.908;18.356;2024-03-08T04:00:31;31.40;;;16.05;;
82022;SDS011;71575;49.908;18.356;2024-03-08T04:03:32;30.63;;;14.52;;
82022;SDS011;71575;49.908;18.356;2024-03-08T04:06:33;30.48;;;16.77;;
82022;SDS011;71575;49.908;18.356;2024-03-08T04:09:34;30.35;;;17.83;;
82022;SDS011;71575;49.908;18.356;2024-03-08T04:12:35;31.55;;;17.77;;
82022;SDS011;71575;49.908;18.356;2024-03-08T04:15:36;32.70;;;14.95;;
82022;SDS011;71575;49.908;18.356;2024-03-08T04:18:37;31.92;;;17.23;;
82022;SDS011;71575;49.908;18.356;2024-03-08T04:21:39;30.10;;;17.85;;
82022;SDS011;71575;49.908;18.356;2024-03-08T04:24:40;32.40;;;17.83;;
82022;SDS011;71575;49.908;18.356;2024-03-08T04:27:40;28.05;;;16.30;;
82022;SDS011;71575;49.908;18.356;2024-03-08T04:30:41;33.67;;;18.35;;
82022;SDS011;71575;49.908;18.356;2024-03-08T04:33:42;32.22;;;17.17;;
82022;SDS011;71575;49.908;18.356;2024-03-08T04:36:43;31.17;;;16.65;;
82022;SDS011;71575;49.908;18.356;2024-03-08T04:39:43;28.17;;;16.80;;
82022;SDS011;71575;49.908;18.356;2024-03-08T04:42:44;28.40;;;15.40;;
82022;SDS011;71575;49.908;18.356;2024-03-08T04:45:45;30.23;;;16.70;;
82022;SDS011;71575;49.908;18.356;2024-03-08T04:48:45;35.70;;;17.17;;
82022;SDS011;71575;49.908;18.356;2024-03-08T04:51:46;32.15;;;17.00;;
82022;SDS011;71575;49.908;18.356;2024-03-08T04:54:47;32.10;;;17.80;;
82022;SDS011;71575;49.908;18.356;2024-03-08T04:57:48;30.75;;;16.83;;
82022;SDS011;71575;49.908;18.356;2024-03-08T05:00:50;39.05;;;21.58;;
82022;SDS011;71575;49.908;18.356;2024-03-08T05:03:50;34.15;;;18.02;;
82022;SDS011;71575;49.908;18.356;2024-03-08T05:06:51;33.45;;;17.48;;
82022;SDS011;71575;49.908;18.356;2024-03-08T05:09:52;32.72;;;16.83;;
82022;SDS011;71575;49.908;18.356;2024-03-08T05:12:53;32.38;;;17.52;;
82022;SDS011;71575;49.908;18.356;2024-03-08T05:15:53;35.25;;;19.98;;
82022;SDS011;71575;49.908;18.356;2024-03-08T05:18:54;31.25;;;17.25;;
82022;SDS011;71575;49.908;18.356;2024-03-08T05:21:55;34.15;;;14.75;;
82022;SDS011;71575;49.908;18.356;2024-03-08T05:24:55;36.03;;;15.82;;
82022;SDS011;71575;49.908;18.356;2024-03-08T05:27:56;29.63;;;19.17;;
82022;SDS011;71575;49.908;18.356;2024-03-08T05:30:57;33.85;;;17.55;;
82022;SDS011;71575;49.908;18.356;2024-03-08T05:33:57;33.50;;;18.17;;
82022;SDS011;71575;49.908;18.356;2024-03-08T05:37:00;33.67;;;18.13;;
82022;SDS011;71575;49.908;18.356;2024-03-08T05:40:00;33.38;;;18.42;;
82022;SDS011;71575;49.908;18.356;2024-03-08T05:43:02;37.55;;;19.33;;
82022;SDS011;71575;49.908;18.356;2024-03-08T05:46:02;37.25;;;22.05;;
82022;SDS011;71575;49.908;18.356;2024-03-08T05:49:05;32.58;;;18.08;;
82022;SDS011;71575;49.908;18.356;2024-03-08T05:52:06;32.15;;;17.92;;
82022;SDS011;71575;49.908;18.356;2024-03-08T05:55:08;32.65;;;15.52;;
82022;SDS011;71575;49.908;18.356;2024-03-08T05:58:09;35.20;;;17.77;;
82022;SDS011;71575;49.908;18.356;2024-03-08T06:01:13;37.83;;;19.73;;
82022;SDS011;71575;49.908;18.356;2024-03-08T06:04:14;35.15;;;18.45;;
82022;SDS011;71575;49.908;18.356;2024-03-08T06:07:16;32.67;;;18.08;;
82022;SDS011;71575;49.908;18.356;2024-03-08T06:10:17;37.13;;;17.92;;
82022;SDS011;71575;49.908;18.356;2024-03-08T06:13:17;34.10;;;17.85;;
82022;SDS011;71575;49.908;18.356;2024-03-08T06:16:18;34.00;;;18.15;;
82022;SDS011;71575;49.908;18.356;2024-03-08T06:19:19;33.63;;;17.75;;
82022;SDS011;71575;49.908;18.356;2024-03-08T06:22:20;35.63;;;17.35;;
82022;SDS011;71575;49.908;18.356;2024-03-08T06:25:20;33.60;;;16.80;;
82022;SDS011;71575;49.908;18.356;2024-03-08T06:28:21;29.20;;;16.20;;
82022;SDS011;71575;49.908;18.356;2024-03-08T06:31:22;34.58;;;16.92;;
82022;SDS011;71575;49.908;18.356;2024-03-08T06:34:24;35.20;;;18.15;;
82022;SDS011;71575;49.908;18.356;2024-03-08T06:37:24;35.38;;;19.42;;
82022;SDS011;71575;49.908;18.356;2024-03-08T06:40:25;35.88;;;19.02;;
82022;SDS011;71575;49.908;18.356;2024-03-08T06:43:27;34.33;;;18.70;;
82022;SDS011;71575;49.908;18.356;2024-03-08T06:46:27;31.67;;;18.25;;
82022;SDS011;71575;49.908;18.356;2024-03-08T06:49:30;34.05;;;19.13;;
82022;SDS011;71575;49.908;18.356;2024-03-08T06:52:30;32.63;;;18.48;;
82022;SDS011;71575;49.908;18.356;2024-03-08T06:55:31;30.50;;;15.95;;
82022;SDS011;71575;49.908;18.356;2024-03-08T06:58:32;31.63;;;16.63;;
82022;SDS011;71575;49.908;18.356;2024-03-08T07:01:41;32.33;;;18.30;;
82022;SDS011;71575;49.908;18.356;2024-03-08T07:04:42;30.38;;;16.60;;
82022;SDS011;71575;49.908;18.356;2024-03-08T07:07:43;32.45;;;17.65;;
82022;SDS011;71575;49.908;18.356;2024-03-08T07:10:44;29.88;;;16.23;;
82022;SDS011;71575;49.908;18.356;2024-03-08T07:13:45;25.08;;;13.38;;
82022;SDS011;71575;49.908;18.356;2024-03-08T07:16:45;31.48;;;16.58;;
82022;SDS011;71575;49.908;18.356;2024-03-08T07:19:46;30.50;;;15.70;;
82022;SDS011;71575;49.908;18.356;2024-03-08T07:22:47;31.55;;;17.83;;
82022;SDS011;71575;49.908;18.356;2024-03-08T07:25:48;30.35;;;17.35;;
82022;SDS011;71575;49.908;18.356;2024-03-08T07:28:49;33.97;;;15.05;;
82022;SDS011;71575;49.908;18.356;2024-03-08T07:31:52;27.13;;;12.93;;
82022;SDS011;71575;49.908;18.356;2024-03-08T07:34:56;32.08;;;16.20;;
82022;SDS011;71575;49.908;18.356;2024-03-08T07:38:01;30.60;;;16.15;;
82022;SDS011;71575;49.908;18.356;2024-03-08T07:41:06;31.70;;;15.85;;
82022;SDS011;71575;49.908;18.356;2024-03-08T07:44:09;28.05;;;14.57;;
82022;SDS011;71575;49.908;18.356;2024-03-08T07:47:10;29.48;;;14.18;;
82022;SDS011;71575;49.908;18.356;2024-03-08T07:50:12;30.48;;;15.25;;
82022;SDS011;71575;49.908;18.356;2024-03-08T07:53:13;27.05;;;15.90;;
82022;SDS011;71575;49.908;18.356;2024-03-08T07:56:21;28.08;;;14.50;;
82022;SDS011;71575;49.908;18.356;2024-03-08T07:59:22;28.35;;;14.80;;
82022;SDS011;71575;49.908;18.356;2024-03-08T08:02:24;26.25;;;15.63;;
82022;SDS011;71575;49.908;18.356;2024-03-08T08:05:25;33.28;;;15.90;;
82022;SDS011;71575;49.908;18.356;2024-03-08T08:08:26;29.55;;;15.20;;
82022;SDS011;71575;49.908;18.356;2024-03-08T08:11:27;26.40;;;13.60;;
82022;SDS011;71575;49.908;18.356;2024-03-08T08:14:33;27.40;;;15.15;;
82022;SDS011;71575;49.908;18.356;2024-03-08T08:17:34;28.42;;;14.05;;
82022;SDS011;71575;49.908;18.356;2024-03-08T08:20:35;30.35;;;16.10;;
82022;SDS011;71575;49.908;18.356;2024-03-08T08:23:35;26.98;;;15.13;;
82022;SDS011;71575;49.908;18.356;2024-03-08T08:26:38;25.27;;;13.15;;
82022;SDS011;71575;49.908;18.356;2024-03-08T08:29:42;24.63;;;13.95;;
82022;SDS011;71575;49.908;18.356;2024-03-08T08:32:42;26.17;;;13.90;;
82022;SDS011;71575;49.908;18.356;2024-03-08T08:35:43;25.63;;;12.20;;
82022;SDS011;71575;49.908;18.356;2024-03-08T08:38:44;26.52;;;13.38;;
82022;SDS011;71575;49.908;18.356;2024-03-08T08:41:48;27.45;;;14.88;;
82022;SDS011;71575;49.908;18.356;2024-03-08T08:44:50;24.25;;;13.18;;
82022;SDS011;71575;49.908;18.356;2024-03-08T08:47:52;26.00;;;13.40;;
82022;SDS011;71575;49.908;18.356;2024-03-08T08:50:56;28.05;;;15.85;;
82022;SDS011;71575;49.908;18.356;2024-03-08T08:53:57;22.25;;;12.13;;
82022;SDS011;71575;49.908;18.356;2024-03-08T08:56:57;18.73;;;10.90;;
82022;SDS011;71575;49.908;18.356;2024-03-08T08:59:59;22.20;;;12.55;;
82022;SDS011;71575;49.908;18.356;2024-03-08T09:03:00;24.52;;;13.48;;
82022;SDS011;71575;49.908;18.356;2024-03-08T09:06:00;25.88;;;15.20;;
82022;SDS011;71575;49.908;18.356;2024-03-08T09:09:01;24.67;;;12.68;;
82022;SDS011;71575;49.908;18.356;2024-03-08T09:12:03;24.75;;;13.38;;
82022;SDS011;71575;49.908;18.356;2024-03-08T09:15:04;26.05;;;13.80;;
82022;SDS011;71575;49.908;18.356;2024-03-08T09:18:05;24.30;;;13.50;;
82022;SDS011;71575;49.908;18.356;2024-03-08T09:21:07;23.40;;;11.27;;
82022;SDS011;71575;49.908;18.356;2024-03-08T09:24:07;23.92;;;13.43;;
82022;SDS011;71575;49.908;18.356;2024-03-08T09:27:11;20.60;;;13.35;;
82022;SDS011;71575;49.908;18.356;2024-03-08T09:30:12;24.42;;;15.07;;
82022;SDS011;71575;49.908;18.356;2024-03-08T09:33:13;23.50;;;14.00;;
82022;SDS011;71575;49.908;18.356;2024-03-08T09:36:14;21.33;;;13.13;;
82022;SDS011;71575;49.908;18.356;2024-03-08T09:39:15;24.50;;;14.23;;
82022;SDS011;71575;49.908;18.356;2024-03-08T09:42:18;29.42;;;13.70;;
82022;SDS011;71575;49.908;18.356;2024-03-08T09:45:19;28.48;;;14.90;;
82022;SDS011;71575;49.908;18.356;2024-03-08T09:48:21;27.70;;;13.60;;
82022;SDS011;71575;49.908;18.356;2024-03-08T09:51:23;24.58;;;14.32;;
82022;SDS011;71575;49.908;18.356;2024-03-08T09:54:29;23.95;;;12.07;;
82022;SDS011;71575;49.908;18.356;2024-03-08T09:57:30;25.55;;;13.30;;
82022;SDS011;71575;49.908;18.356;2024-03-08T10:00:31;25.63;;;14.27;;
82022;SDS011;71575;49.908;18.356;2024-03-08T10:03:32;24.40;;;12.50;;
82022;SDS011;71575;49.908;18.356;2024-03-08T10:06:35;25.77;;;13.65;;
82022;SDS011;71575;49.908;18.356;2024-03-08T10:09:41;26.00;;;13.68;;
82022;SDS011;71575;49.908;18.356;2024-03-08T10:12:42;26.45;;;14.45;;
82022;SDS011;71575;49.908;18.356;2024-03-08T10:15:44;26.85;;;16.08;;
82022;SDS011;71575;49.908;18.356;2024-03-08T10:18:46;25.35;;;15.38;;
82022;SDS011;71575;49.908;18.356;2024-03-08T10:21:49;29.55;;;15.60;;
82022;SDS011;71575;49.908;18.356;2024-03-08T10:24:51;22.67;;;13.23;;
82022;SDS011;71575;49.908;18.356;2024-03-08T10:27:56;25.20;;;15.23;;
82022;SDS011;71575;49.908;18.356;2024-03-08T10:30:59;23.23;;;12.63;;
82022;SDS011;71575;49.908;18.356;2024-03-08T10:34:01;26.10;;;15.07;;
82022;SDS011;71575;49.908;18.356;2024-03-08T10:37:06;22.77;;;13.57;;
82022;SDS011;71575;49.908;18.356;2024-03-08T10:40:10;23.70;;;13.95;;
82022;SDS011;71575;49.908;18.356;2024-03-08T10:43:18;26.85;;;15.60;;
82022;SDS011;71575;49.908;18.356;2024-03-08T10:49:50;25.33;;;13.75;;
82022;SDS011;71575;49.908;18.356;2024-03-08T10:52:55;28.05;;;15.45;;
82022;SDS011;71575;49.908;18.356;2024-03-08T10:55:57;23.70;;;14.57;;
82022;SDS011;71575;49.908;18.356;2024-03-08T10:58:58;24.20;;;14.77;;
82022;SDS011;71575;49.908;18.356;2024-03-08T11:01:59;27.20;;;14.93;;
82022;SDS011;71575;49.908;18.356;2024-03-08T11:05:03;25.67;;;14.90;;
82022;SDS011;71575;49.908;18.356;2024-03-08T11:08:20;22.30;;;14.25;;
82022;SDS011;71575;49.908;18.356;2024-03-08T11:11:27;22.20;;;13.30;;
82022;SDS011;71575;49.908;18.356;2024-03-08T11:14:45;25.80;;;15.65;;
82022;SDS011;71575;49.908;18.356;2024-03-08T11:17:48;25.25;;;14.98;;
82022;SDS011;71575;49.908;18.356;2024-03-08T11:20:49;27.13;;;15.90;;
82022;SDS011;71575;49.908;18.356;2024-03-08T11:24:00;25.30;;;15.27;;
82022;SDS011;71575;49.908;18.356;2024-03-08T11:27:00;25.63;;;15.50;;
82022;SDS011;71575;49.908;18.356;2024-03-08T11:30:05;30.73;;;15.38;;
82022;SDS011;71575;49.908;18.356;2024-03-08T11:33:06;28.60;;;15.65;;
82022;SDS011;71575;49.908;18.356;2024-03-08T11:36:24;31.63;;;16.90;;
82022;SDS011;71575;49.908;18.356;2024-03-08T11:39:30;25.75;;;13.98;;
82022;SDS011;71575;49.908;18.356;2024-03-08T11:42:35;28.25;;;16.42;;
82022;SDS011;71575;49.908;18.356;2024-03-08T11:45:35;25.80;;;15.07;;
82022;SDS011;71575;49.908;18.356;2024-03-08T11:48:36;26.55;;;16.70;;
82022;SDS011;71575;49.908;18.356;2024-03-08T11:51:37;27.83;;;14.55;;
82022;SDS011;71575;49.908;18.356;2024-03-08T11:54:37;26.50;;;15.77;;
82022;SDS011;71575;49.908;18.356;2024-03-08T11:57:38;26.58;;;14.60;;
82022;SDS011;71575;49.908;18.356;2024-03-08T12:00:42;30.77;;;15.57;;
82022;SDS011;71575;49.908;18.356;2024-03-08T12:03:42;32.03;;;17.52;;
82022;SDS011;71575;49.908;18.356;2024-03-08T12:06:44;26.63;;;15.50;;
82022;SDS011;71575;49.908;18.356;2024-03-08T12:09:44;28.55;;;14.88;;
82022;SDS011;71575;49.908;18.356;2024-03-08T12:13:16;27.35;;;14.10;;
82022;SDS011;71575;49.908;18.356;2024-03-08T12:16:17;25.83;;;15.52;;
82022;SDS011;71575;49.908;18.356;2024-03-08T12:19:19;24.45;;;13.98;;
82022;SDS011;71575;49.908;18.356;2024-03-08T12:22:24;27.17;;;15.15;;
82022;SDS011;71575;49.908;18.356;2024-03-08T12:25:26;26.15;;;13.27;;
82022;SDS011;71575;49.908;18.356;2024-03-08T12:28:29;26.48;;;14.77;;
82022;SDS011;71575;49.908;18.356;2024-03-08T12:31:57;27.23;;;16.27;;
82022;SDS011;71575;49.908;18.356;2024-03-08T12:35:17;26.70;;;14.90;;
82022;SDS011;71575;49.908;18.356;2024-03-08T12:38:18;29.42;;;16.25;;
82022;SDS011;71575;49.908;18.356;2024-03-08T12:41:20;27.95;;;15.52;;
82022;SDS011;71575;49.908;18.356;2024-03-08T12:44:22;29.70;;;15.02;;
82022;SDS011;71575;49.908;18.356;2024-03-08T12:47:28;28.05;;;13.95;;
82022;SDS011;71575;49.908;18.356;2024-03-08T12:50:32;26.77;;;13.75;;
82022;SDS011;71575;49.908;18.356;2024-03-08T12:53:35;30.55;;;17.52;;
82022;SDS011;71575;49.908;18.356;2024-03-08T12:56:45;29.42;;;15.07;;
82022;SDS011;71575;49.908;18.356;2024-03-08T12:59:50;29.38;;;16.55;;
82022;SDS011;71575;49.908;18.356;2024-03-08T13:02:50;28.15;;;16.13;;
82022;SDS011;71575;49.908;18.356;2024-03-08T13:05:54;29.98;;;17.45;;
82022;SDS011;71575;49.908;18.356;2024-03-08T13:08:58;28.35;;;16.65;;
82022;SDS011;71575;49.908;18.356;2024-03-08T13:11:59;28.35;;;16.17;;
82022;SDS011;71575;49.908;18.356;2024-03-08T13:15:04;27.30;;;16.55;;
82022;SDS011;71575;49.908;18.356;2024-03-08T13:18:07;25.85;;;16.08;;
82022;SDS011;71575;49.908;18.356;2024-03-08T13:21:07;28.00;;;16.73;;
82022;SDS011;71575;49.908;18.356;2024-03-08T13:24:12;28.40;;;15.35;;
82022;SDS011;71575;49.908;18.356;2024-03-08T13:27:16;29.23;;;16.33;;
82022;SDS011;71575;49.908;18.356;2024-03-08T13:30:20;26.02;;;16.73;;
82022;SDS011;71575;49.908;18.356;2024-03-08T13:33:22;30.80;;;15.35;;
82022;SDS011;71575;49.908;18.356;2024-03-08T13:36:23;31.20;;;16.35;;
82022;SDS011;71575;49.908;18.356;2024-03-08T13:39:24;30.75;;;17.20;;
82022;SDS011;71575;49.908;18.356;2024-03-08T13:42:25;29.30;;;15.10;;
82022;SDS011;71575;49.908;18.356;2024-03-08T13:45:26;28.42;;;16.02;;
82022;SDS011;71575;49.908;18.356;2024-03-08T13:48:30;29.88;;;17.50;;
82022;SDS011;71575;49.908;18.356;2024-03-08T13:51:31;30.85;;;18.40;;
82022;SDS011;71575;49.908;18.356;2024-03-08T13:54:35;27.77;;;17.02;;
82022;SDS011;71575;49.908;18.356;2024-03-08T13:57:37;27.30;;;15.50;;
82022;SDS011;71575;49.908;18.356;2024-03-08T14:00:38;31.48;;;15.80;;
82022;SDS011;71575;49.908;18.356;2024-03-08T14:03:39;30.55;;;16.13;;
82022;SDS011;71575;49.908;18.356;2024-03-08T14:06:41;28.65;;;16.00;;
82022;SDS011;71575;49.908;18.356;2024-03-08T14:09:42;25.30;;;15.15;;
82022;SDS011;71575;49.908;18.356;2024-03-08T14:12:43;30.35;;;18.05;;
82022;SDS011;71575;49.908;18.356;2024-03-08T14:15:44;28.13;;;15.63;;
82022;SDS011;71575;49.908;18.356;2024-03-08T14:18:46;30.98;;;14.80;;
82022;SDS011;71575;49.908;18.356;2024-03-08T14:21:47;33.42;;;17.08;;
82022;SDS011;71575;49.908;18.356;2024-03-08T14:24:48;29.00;;;14.35;;
82022;SDS011;71575;49.908;18.356;2024-03-08T14:27:49;31.65;;;18.63;;
82022;SDS011;71575;49.908;18.356;2024-03-08T14:30:51;28.50;;;17.38;;
82022;SDS011;71575;49.908;18.356;2024-03-08T14:33:53;32.63;;;17.70;;
82022;SDS011;71575;49.908;18.356;2024-03-08T14:36:54;27.67;;;14.45;;
82022;SDS011;71575;49.908;18.356;2024-03-08T14:39:55;27.92;;;14.38;;
82022;SDS011;71575;49.908;18.356;2024-03-08T14:42:56;29.60;;;16.23;;
82022;SDS011;71575;49.908;18.356;2024-03-08T14:45:58;32.55;;;17.90;;
82022;SDS011;71575;49.908;18.356;2024-03-08T14:49:02;30.67;;;16.67;;
82022;SDS011;71575;49.908;18.356;2024-03-08T14:52:03;35.70;;;22.60;;
82022;SDS011;71575;49.908;18.356;2024-03-08T14:55:05;32.38;;;18.95;;
82022;SDS011;71575;49.908;18.356;2024-03-08T14:58:08;30.83;;;17.67;;
82022;SDS011;71575;49.908;18.356;2024-03-08T15:01:12;33.88;;;18.10;;
82022;SDS011;71575;49.908;18.356;2024-03-08T15:04:13;32.28;;;18.60;;
82022;SDS011;71575;49.908;18.356;2024-03-08T15:07:14;29.65;;;16.27;;
82022;SDS011;71575;49.908;18.356;2024-03-08T15:10:15;32.08;;;20.38;;
82022;SDS011;71575;49.908;18.356;2024-03-08T15:13:16;32.00;;;17.30;;
82022;SDS011;71575;49.908;18.356;2024-03-08T15:16:16;28.48;;;17.50;;
82022;SDS011;71575;49.908;18.356;2024-03-08T15:19:17;32.22;;;18.40;;
82022;SDS011;71575;49.908;18.356;2024-03-08T15:22:18;34.63;;;18.25;;
82022;SDS011;71575;49.908;18.356;2024-03-08T15:25:23;34.90;;;19.33;;
82022;SDS011;71575;49.908;18.356;2024-03-08T15:28:23;30.42;;;16.52;;
82022;SDS011;71575;49.908;18.356;2024-03-08T15:31:26;34.40;;;18.73;;
82022;SDS011;71575;49.908;18.356;2024-03-08T15:34:27;32.85;;;16.83;;
82022;SDS011;71575;49.908;18.356;2024-03-08T15:37:29;36.20;;;19.42;;
82022;SDS011;71575;49.908;18.356;2024-03-08T15:40:30;36.30;;;18.95;;
82022;SDS011;71575;49.908;18.356;2024-03-08T15:43:39;35.45;;;18.95;;
82022;SDS011;71575;49.908;18.356;2024-03-08T15:46:41;31.83;;;18.98;;
82022;SDS011;71575;49.908;18.356;2024-03-08T15:49:43;38.30;;;20.30;;
82022;SDS011;71575;49.908;18.356;2024-03-08T15:52:44;31.67;;;17.17;;
82022;SDS011;71575;49.908;18.356;2024-03-08T15:55:47;37.72;;;20.50;;
82022;SDS011;71575;49.908;18.356;2024-03-08T15:58:48;30.35;;;15.38;;
82022;SDS011;71575;49.908;18.356;2024-03-08T16:01:49;32.35;;;18.58;;
82022;SDS011;71575;49.908;18.356;2024-03-08T16:04:50;33.13;;;18.10;;
82022;SDS011;71575;49.908;18.356;2024-03-08T16:07:51;27.35;;;15.10;;
82022;SDS011;71575;49.908;18.356;2024-03-08T16:10:52;32.03;;;18.30;;
82022;SDS011;71575;49.908;18.356;2024-03-08T16:13:54;29.40;;;15.98;;
82022;SDS011;71575;49.908;18.356;2024-03-08T16:16:55;32.22;;;17.75;;
82022;SDS011;71575;49.908;18.356;2024-03-08T16:19:56;31.58;;;18.35;;
82022;SDS011;71575;49.908;18.356;2024-03-08T16:23:00;31.20;;;17.77;;
82022;SDS011;71575;49.908;18.356;2024-03-08T16:26:01;33.28;;;18.90;;
82022;SDS011;71575;49.908;18.356;2024-03-08T16:29:02;40.90;;;23.27;;
82022;SDS011;71575;49.908;18.356;2024-03-08T16:32:03;51.95;;;26.70;;
82022;SDS011;71575;49.908;18.356;2024-03-08T16:35:03;53.17;;;27.10;;
82022;SDS011;71575;49.908;18.356;2024-03-08T16:38:07;64.95;;;31.45;;
82022;SDS011;71575;49.908;18.356;2024-03-08T16:41:08;64.65;;;32.20;;
82022;SDS011;71575;49.908;18.356;2024-03-08T16:44:09;86.25;;;40.20;;
82022;SDS011;71575;49.908;18.356;2024-03-08T16:47:10;92.47;;;43.60;;
82022;SDS011;71575;49.908;18.356;2024-03-08T16:50:17;80.97;;;37.50;;
82022;SDS011;71575;49.908;18.356;2024-03-08T16:53:19;92.95;;;44.53;;
82022;SDS011;71575;49.908;18.356;2024-03-08T16:56:22;98.15;;;48.40;;
82022;SDS011;71575;49.908;18.356;2024-03-08T16:59:23;55.15;;;28.13;;
82022;SDS011;71575;49.908;18.356;2024-03-08T17:02:26;44.58;;;23.92;;
82022;SDS011;71575;49.908;18.356;2024-03-08T17:05:27;30.42;;;17.80;;
82022;SDS011;71575;49.908;18.356;2024-03-08T17:08:31;37.67;;;17.75;;
82022;SDS011;71575;49.908;18.356;2024-03-08T17:11:32;35.88;;;19.60;;
82022;SDS011;71575;49.908;18.356;2024-03-08T17:14:33;30.98;;;16.10;;
82022;SDS011;71575;49.908;18.356;2024-03-08T17:17:35;37.67;;;19.00;;
82022;SDS011;71575;49.908;18.356;2024-03-08T17:20:36;32.05;;;18.33;;
82022;SDS011;71575;49.908;18.356;2024-03-08T17:23:37;36.88;;;17.90;;
82022;SDS011;71575;49.908;18.356;2024-03-08T17:26:37;28.70;;;15.30;;
82022;SDS011;71575;49.908;18.356;2024-03-08T17:29:38;38.28;;;20.55;;
82022;SDS011;71575;49.908;18.356;2024-03-08T17:32:41;33.22;;;18.33;;
82022;SDS011;71575;49.908;18.356;2024-03-08T17:35:41;38.92;;;19.90;;
82022;SDS011;71575;49.908;18.356;2024-03-08T17:38:44;37.38;;;19.98;;